Terminal Aerodrome Forecast
Issued by NWS

Home | Current Version | Previous Version | Text Only | Print | Product List | Glossary On
Versions: 1 2 3 4 5 6 7 8 9 10 11 12 13 14 15 16 17 18 19 20 21 22 23 24 25 26 27 28
000
FTUS45 KBYZ 011138
TAFLVM
TAF
KLVM 011138Z 0112/0212 23009KT P6SM SKC
     FM011600 22014G22KT P6SM FEW100 SCT150
     FM012100 23018G30KT P6SM VCTS SCT050CB BKN100
     FM020100 24014KT P6SM FEW050 SCT150
     FM020500 32005KT P6SM FEW150=

USA.gov is the U.S. government's official web portal to all federal, state and local government web resources and services.